Time;durP1;ratioP1;P1;durP2;ratioP2;P2;SDS_P1;SDS_P2;PMS_P1;PMS_P2;Temp;Humidity;BMP_temperature;BMP_pressure;BME280_temperature;BME280_humidity;BME280_pressure;Samples;Min_cycle;Max_cycle;Signal;HPM_P1;HPM_P2
2022/10/10 00:01:27;;;;;;;6.43;2.60;;;10.70;98.00;;;;;;5051014;28;20457;-67
2022/10/10 00:03:55;;;;;;;3.87;2.30;;;10.70;98.00;;;;;;5050949;28;20888;-67
2022/10/10 00:06:24;;;;;;;4.37;2.27;;;10.50;98.00;;;;;;5051229;28;20481;-68
2022/10/10 00:08:52;;;;;;;4.00;2.07;;;10.50;98.00;;;;;;5050892;28;20990;-67
2022/10/10 00:11:22;;;;;;;4.83;2.70;;;10.30;98.00;;;;;;5051029;28;20454;-67
2022/10/10 00:13:49;;;;;;;4.57;2.50;;;10.20;98.00;;;;;;5050871;28;21085;-68
2022/10/10 00:16:17;;;;;;;2.17;1.70;;;10.30;98.00;;;;;;5050813;28;20464;-67
2022/10/10 00:18:45;;;;;;;3.30;1.97;;;10.50;98.00;;;;;;5050859;28;20552;-67
2022/10/10 00:21:13;;;;;;;5.60;1.80;;;10.40;98.00;;;;;;5050819;28;20467;-67
2022/10/10 00:23:41;;;;;;;3.07;2.27;;;10.40;98.00;;;;;;5050969;28;20487;-67
2022/10/10 00:26:09;;;;;;;3.40;2.03;;;10.40;98.00;;;;;;5049658;28;20463;-67
2022/10/10 00:28:38;;;;;;;2.30;1.97;;;10.40;98.00;;;;;;5051042;28;20629;-67
2022/10/10 00:31:05;;;;;;;3.50;1.70;;;10.40;98.00;;;;;;5050626;28;20965;-67
2022/10/10 00:33:32;;;;;;;3.77;2.57;;;10.40;98.00;;;;;;5050877;28;20461;-67
2022/10/10 00:36:00;;;;;;;3.87;2.10;;;10.50;98.00;;;;;;5050640;28;20465;-67
2022/10/10 00:38:27;;;;;;;3.30;1.93;;;10.20;98.00;;;;;;5050865;28;20466;-68
2022/10/10 00:40:56;;;;;;;2.60;1.97;;;10.10;98.00;;;;;;5050976;28;20452;-67
2022/10/10 00:43:26;;;;;;;3.07;2.20;;;10.10;98.00;;;;;;5050975;28;20556;-68
2022/10/10 00:45:54;;;;;;;2.80;1.80;;;10.10;98.00;;;;;;5050870;28;20466;-67
2022/10/10 00:48:24;;;;;;;4.10;1.90;;;10.10;98.00;;;;;;5050662;28;20475;-67
2022/10/10 00:50:55;;;;;;;2.37;1.90;;;10.20;98.00;;;;;;5053351;28;20455;-68
2022/10/10 00:53:25;;;;;;;2.73;1.97;;;10.10;98.00;;;;;;5054491;28;20452;-67
2022/10/10 00:55:54;;;;;;;3.97;2.47;;;10.20;98.00;;;;;;5054415;28;20459;-68
2022/10/10 00:58:21;;;;;;;3.10;2.27;;;10.40;98.00;;;;;;5054470;28;20464;-67
2022/10/10 01:00:50;;;;;;;2.40;1.60;;;10.40;98.00;;;;;;5054122;28;20964;-67
2022/10/10 01:03:17;;;;;;;3.13;2.20;;;10.40;98.00;;;;;;5054059;28;20495;-68
2022/10/10 01:05:45;;;;;;;3.63;2.00;;;10.40;98.00;;;;;;5054205;28;20456;-67
2022/10/10 01:08:13;;;;;;;3.20;1.97;;;10.40;98.00;;;;;;5054082;28;20952;-68
2022/10/10 01:10:50;;;;;;;2.23;1.60;;;10.40;98.00;;;;;;5052849;28;20461;-67
2022/10/10 01:13:30;;;;;;;3.47;2.00;;;10.40;98.00;;;;;;5053950;28;20525;-67
2022/10/10 01:16:04;;;;;;;4.77;2.30;;;10.40;98.00;;;;;;5052820;28;20836;-67
2022/10/10 01:18:41;;;;;;;2.93;1.93;;;10.40;98.00;;;;;;5053922;28;20468;-67
2022/10/10 01:21:20;;;;;;;2.43;1.70;;;10.40;98.00;;;;;;5053877;28;20944;-67
2022/10/10 01:24:24;;;;;;;3.40;1.90;;;10.60;98.00;;;;;;5053924;28;20849;-67
2022/10/10 01:27:13;;;;;;;1.60;1.47;;;10.60;98.00;;;;;;5053749;28;20460;-68
2022/10/10 01:29:45;;;;;;;2.13;1.50;;;10.70;98.00;;;;;;5053846;28;20460;-67
2022/10/10 01:32:19;;;;;;;2.50;1.90;;;10.70;98.00;;;;;;5053628;28;20454;-67
2022/10/10 01:34:57;;;;;;;2.90;1.90;;;10.90;98.00;;;;;;5053571;28;20520;-67
2022/10/10 01:37:34;;;;;;;1.80;1.60;;;11.00;98.00;;;;;;5053810;28;20521;-67
2022/10/10 01:40:09;;;;;;;3.60;2.60;;;10.90;98.00;;;;;;5052425;28;20486;-67
2022/10/10 01:42:41;;;;;;;3.00;1.90;;;10.80;98.00;;;;;;5053955;28;20873;-67
2022/10/10 01:45:10;;;;;;;5.53;2.00;;;10.80;98.00;;;;;;5053535;28;20498;-67
2022/10/10 01:47:37;;;;;;;2.63;1.77;;;10.60;98.00;;;;;;5053424;28;20947;-68
2022/10/10 01:50:08;;;;;;;2.53;1.63;;;10.50;98.00;;;;;;5052477;28;20472;-67
2022/10/10 01:52:48;;;;;;;7.57;2.13;;;10.30;98.00;;;;;;5053444;28;20463;-67
2022/10/10 01:55:36;;;;;;;1.70;1.60;;;10.30;98.00;;;;;;5053360;28;20483;-68
2022/10/10 01:58:13;;;;;;;2.07;1.77;;;10.20;98.00;;;;;;5053262;28;20514;-67
2022/10/10 02:00:48;;;;;;;4.80;1.60;;;10.20;98.00;;;;;;5052962;28;20476;-67
2022/10/10 02:03:21;;;;;;;4.13;2.00;;;10.40;98.00;;;;;;5053016;28;20463;-67
2022/10/10 02:05:53;;;;;;;3.43;2.13;;;10.60;98.00;;;;;;5052926;28;20462;-67
2022/10/10 02:08:28;;;;;;;3.80;2.83;;;10.60;98.00;;;;;;5052929;28;20829;-68
2022/10/10 02:11:00;;;;;;;3.60;1.90;;;10.60;98.00;;;;;;5052792;28;20447;-67
2022/10/10 02:13:33;;;;;;;2.73;1.97;;;10.60;98.00;;;;;;5052878;28;20452;-67
2022/10/10 02:16:05;;;;;;;3.00;1.97;;;10.70;98.00;;;;;;5052726;28;20453;-67
2022/10/10 02:18:35;;;;;;;2.30;1.53;;;10.60;98.00;;;;;;5052940;28;20522;-67
2022/10/10 02:21:04;;;;;;;2.23;1.67;;;10.40;98.00;;;;;;5052960;28;20465;-68
2022/10/10 02:23:33;;;;;;;5.57;2.20;;;10.40;98.00;;;;;;5053294;28;20488;-67
2022/10/10 02:26:00;;;;;;;1.70;1.40;;;10.40;98.00;;;;;;5051316;28;20807;-67
2022/10/10 02:28:35;;;;;;;3.20;2.03;;;10.50;98.00;;;;;;5052645;28;20506;-67
2022/10/10 02:31:08;;;;;;;1.77;1.30;;;10.60;98.00;;;;;;5052584;28;20466;-67
2022/10/10 02:33:43;;;;;;;2.13;1.57;;;10.60;98.00;;;;;;5052635;28;20460;-67
2022/10/10 02:36:11;;;;;;;3.43;1.97;;;10.70;98.00;;;;;;5052363;28;20838;-67
2022/10/10 02:38:39;;;;;;;2.57;2.37;;;10.70;98.00;;;;;;5052638;28;20450;-67
2022/10/10 02:41:12;;;;;;;2.47;1.73;;;10.80;98.00;;;;;;5051389;28;20843;-67
2022/10/10 02:43:40;;;;;;;4.13;2.23;;;11.00;98.00;;;;;;5052685;28;20884;-67
2022/10/10 02:46:12;;;;;;;3.00;2.00;;;10.70;98.00;;;;;;5052221;28;20452;-67
2022/10/10 02:48:40;;;;;;;2.43;1.90;;;10.60;98.00;;;;;;5052457;28;20492;-67
2022/10/10 02:51:07;;;;;;;2.67;1.97;;;10.80;98.00;;;;;;5052120;28;20465;-67
2022/10/10 02:53:37;;;;;;;2.63;1.73;;;10.70;98.00;;;;;;5052374;28;20461;-67
2022/10/10 02:56:05;;;;;;;4.70;2.50;;;10.60;98.00;;;;;;5051956;28;20460;-67
2022/10/10 02:58:32;;;;;;;5.23;1.90;;;10.60;98.00;;;;;;5034350;28;20664;-67
2022/10/10 03:01:01;;;;;;;2.00;1.57;;;10.50;98.00;;;;;;5050795;28;20948;-67
2022/10/10 03:03:30;;;;;;;2.57;1.97;;;10.30;98.00;;;;;;5050946;28;20459;-67
2022/10/10 03:05:57;;;;;;;3.40;2.00;;;10.30;98.00;;;;;;5050713;28;20464;-67
2022/10/10 03:08:24;;;;;;;5.10;1.77;;;10.20;98.00;;;;;;5051848;28;20968;-67
2022/10/10 03:10:55;;;;;;;2.73;1.80;;;10.20;98.00;;;;;;5051663;28;20464;-67
2022/10/10 03:13:23;;;;;;;2.93;1.53;;;10.10;98.00;;;;;;5051159;28;20540;-67
2022/10/10 03:15:50;;;;;;;2.60;2.13;;;10.20;98.00;;;;;;5051781;28;20880;-67
2022/10/10 03:18:17;;;;;;;3.10;2.03;;;10.20;98.00;;;;;;5051808;28;20466;-67
2022/10/10 03:20:46;;;;;;;3.03;1.90;;;10.20;98.00;;;;;;5051736;28;20453;-67
2022/10/10 03:23:13;;;;;;;3.07;2.43;;;10.20;98.00;;;;;;5051527;28;20994;-68
2022/10/10 03:25:42;;;;;;;5.40;1.77;;;10.40;98.00;;;;;;5051366;28;20477;-67
2022/10/10 03:28:09;;;;;;;2.60;2.17;;;10.40;98.00;;;;;;5050263;28;20482;-67
2022/10/10 03:30:36;;;;;;;3.87;2.27;;;10.30;98.00;;;;;;5051541;28;20464;-67
2022/10/10 03:33:03;;;;;;;2.27;1.80;;;10.30;98.00;;;;;;5051477;28;20531;-67
2022/10/10 03:35:31;;;;;;;2.77;1.70;;;10.20;98.00;;;;;;5051232;28;20468;-68
2022/10/10 03:38:00;;;;;;;2.20;1.50;;;10.20;98.00;;;;;;5050212;28;20463;-67
2022/10/10 03:40:28;;;;;;;3.30;1.90;;;10.30;98.00;;;;;;5051407;28;20455;-67
2022/10/10 03:42:55;;;;;;;2.23;1.80;;;10.40;98.00;;;;;;5051588;28;20476;-67
2022/10/10 03:45:23;;;;;;;3.50;2.00;;;10.40;98.00;;;;;;5050000;28;20491;-67
2022/10/10 03:47:50;;;;;;;4.13;1.93;;;10.30;98.00;;;;;;5051387;28;20453;-67
2022/10/10 03:50:17;;;;;;;2.80;2.20;;;10.40;98.00;;;;;;5051124;28;20515;-67
2022/10/10 03:52:44;;;;;;;2.43;1.77;;;10.50;98.00;;;;;;5051229;28;20968;-67
2022/10/10 03:55:13;;;;;;;3.10;1.83;;;10.60;98.00;;;;;;5049878;28;20454;-67
2022/10/10 03:57:40;;;;;;;4.33;2.20;;;10.60;98.00;;;;;;5051270;28;20950;-67
2022/10/10 04:00:08;;;;;;;3.70;1.90;;;10.60;98.00;;;;;;5051098;28;20462;-67
2022/10/10 04:02:36;;;;;;;2.40;1.60;;;10.70;98.00;;;;;;5051058;28;20460;-67
2022/10/10 04:05:04;;;;;;;4.60;1.90;;;10.80;98.00;;;;;;5051021;28;20492;-67
2022/10/10 04:07:31;;;;;;;2.17;1.60;;;10.70;98.00;;;;;;5051016;28;20457;-67
2022/10/10 04:09:59;;;;;;;2.50;2.30;;;10.70;98.00;;;;;;5050913;28;20460;-68
2022/10/10 04:12:27;;;;;;;3.20;1.50;;;10.70;98.00;;;;;;5050963;28;20472;-68
2022/10/10 04:14:54;;;;;;;5.43;1.60;;;10.70;98.00;;;;;;5051131;28;20729;-67
2022/10/10 04:17:21;;;;;;;4.70;2.10;;;10.60;98.00;;;;;;5050855;28;20456;-67
2022/10/10 04:19:51;;;;;;;2.07;1.50;;;10.50;98.00;;;;;;5050896;28;20454;-67
2022/10/10 04:22:18;;;;;;;2.10;1.53;;;10.50;98.00;;;;;;5051122;28;20456;-67
2022/10/10 04:24:45;;;;;;;2.50;2.00;;;10.40;98.00;;;;;;5051602;28;20480;-67
2022/10/10 04:27:12;;;;;;;3.07;1.60;;;10.50;98.00;;;;;;5054960;28;20460;-67
2022/10/10 04:29:40;;;;;;;3.23;1.80;;;10.50;98.00;;;;;;5054807;28;20448;-67
2022/10/10 04:32:08;;;;;;;3.00;1.70;;;10.40;98.00;;;;;;5055145;28;20597;-67
2022/10/10 04:34:35;;;;;;;2.53;1.70;;;10.50;98.00;;;;;;5053656;28;20506;-67
2022/10/10 04:37:04;;;;;;;4.13;2.07;;;10.60;98.00;;;;;;5054799;28;20458;-67
2022/10/10 04:39:31;;;;;;;3.43;1.80;;;10.40;98.00;;;;;;5037308;28;21051;-68
2022/10/10 04:41:58;;;;;;;2.50;1.73;;;10.40;98.00;;;;;;5055140;28;20464;-67
2022/10/10 04:44:25;;;;;;;1.87;1.60;;;10.30;98.00;;;;;;5054736;28;20550;-67
2022/10/10 04:46:54;;;;;;;3.23;1.60;;;10.30;98.00;;;;;;5053410;28;20460;-67
2022/10/10 04:49:21;;;;;;;3.57;1.90;;;10.30;98.00;;;;;;5054412;28;20521;-67
2022/10/10 04:51:48;;;;;;;3.50;2.17;;;10.30;98.00;;;;;;5054497;28;20551;-67
2022/10/10 04:54:15;;;;;;;2.00;1.70;;;10.40;98.00;;;;;;5053125;28;20453;-67
2022/10/10 04:56:42;;;;;;;3.33;1.93;;;10.50;98.00;;;;;;5054401;28;20471;-67
2022/10/10 04:59:10;;;;;;;2.40;1.97;;;10.40;98.00;;;;;;5054241;28;20466;-67
2022/10/10 05:01:38;;;;;;;2.40;1.90;;;10.40;98.00;;;;;;5054359;28;20453;-67
2022/10/10 05:04:07;;;;;;;4.10;2.70;;;10.30;98.00;;;;;;5054192;28;20449;-67
2022/10/10 05:06:34;;;;;;;2.77;1.33;;;10.30;98.00;;;;;;5054187;28;20460;-68
2022/10/10 05:09:01;;;;;;;2.30;1.93;;;10.20;98.00;;;;;;5052933;28;20464;-67
2022/10/10 05:11:28;;;;;;;3.10;1.83;;;10.30;98.00;;;;;;5054279;28;20459;-67
2022/10/10 05:13:55;;;;;;;3.30;1.77;;;10.30;98.00;;;;;;5053939;28;20452;-67
2022/10/10 05:16:29;;;;;;;1.83;1.47;;;10.50;98.00;;;;;;5053916;28;20451;-67
2022/10/10 05:18:57;;;;;;;3.00;1.83;;;10.50;98.00;;;;;;5052840;28;20748;-68
2022/10/10 05:21:25;;;;;;;3.93;2.20;;;10.50;98.00;;;;;;5053899;28;20546;-67
2022/10/10 05:23:52;;;;;;;2.17;1.70;;;10.40;98.00;;;;;;5054004;28;20729;-67
2022/10/10 05:26:19;;;;;;;2.20;1.70;;;10.30;98.00;;;;;;5053626;28;20578;-67
2022/10/10 05:28:46;;;;;;;2.60;2.03;;;10.20;98.00;;;;;;5053947;28;21009;-67
2022/10/10 05:31:14;;;;;;;2.60;1.83;;;10.10;98.00;;;;;;5053659;28;20463;-67
2022/10/10 05:33:41;;;;;;;2.77;2.10;;;10.10;98.00;;;;;;5053763;28;20517;-67
2022/10/10 05:36:10;;;;;;;4.50;1.97;;;10.20;98.00;;;;;;5052966;28;20466;-68
2022/10/10 05:38:39;;;;;;;4.70;2.50;;;10.20;98.00;;;;;;5053581;28;20460;-67
2022/10/10 05:41:07;;;;;;;5.33;2.70;;;10.30;98.00;;;;;;5053773;28;20460;-68
2022/10/10 05:43:35;;;;;;;3.93;1.90;;;10.30;98.00;;;;;;5053820;28;20877;-68
2022/10/10 05:46:02;;;;;;;2.73;1.90;;;10.30;98.00;;;;;;5053538;28;20482;-68
2022/10/10 05:48:29;;;;;;;7.00;2.87;;;10.30;98.00;;;;;;5053548;28;20457;-67
2022/10/10 05:50:59;;;;;;;4.70;2.50;;;10.30;98.00;;;;;;5053348;28;20513;-67
2022/10/10 05:53:28;;;;;;;3.90;2.17;;;10.30;98.00;;;;;;5053240;28;20476;-67
2022/10/10 05:55:57;;;;;;;3.47;2.00;;;10.50;98.00;;;;;;5053261;28;20489;-67
2022/10/10 05:58:25;;;;;;;2.23;1.67;;;10.40;98.00;;;;;;5053322;28;20482;-67
2022/10/10 06:00:52;;;;;;;2.70;1.90;;;10.40;98.00;;;;;;5053056;28;20460;-67
2022/10/10 06:03:20;;;;;;;2.77;2.20;;;10.40;98.00;;;;;;5053195;28;20466;-67
2022/10/10 06:05:51;;;;;;;2.10;1.97;;;10.40;98.00;;;;;;5052941;28;20519;-67
2022/10/10 06:08:19;;;;;;;2.70;2.00;;;10.30;98.00;;;;;;5053077;28;20467;-67
2022/10/10 06:10:47;;;;;;;4.10;2.37;;;10.30;98.00;;;;;;5053060;28;21114;-67
2022/10/10 06:13:17;;;;;;;3.57;1.90;;;10.30;98.00;;;;;;5053067;28;20644;-67
2022/10/10 06:15:45;;;;;;;4.10;2.67;;;10.40;98.00;;;;;;5051531;28;20469;-67
2022/10/10 06:18:12;;;;;;;2.80;1.97;;;10.40;98.00;;;;;;5052947;28;20456;-67
2022/10/10 06:20:41;;;;;;;3.83;2.17;;;10.50;98.00;;;;;;5051855;28;20917;-67
2022/10/10 06:23:09;;;;;;;1.97;1.63;;;10.50;98.00;;;;;;5051674;28;20840;-67
2022/10/10 06:25:36;;;;;;;2.57;1.80;;;10.50;98.00;;;;;;5052694;28;20494;-64
2022/10/10 06:28:04;;;;;;;3.03;1.90;;;10.40;98.00;;;;;;5052575;28;20476;-63
2022/10/10 06:30:33;;;;;;;3.63;2.27;;;10.50;98.00;;;;;;5051521;28;20476;-64
2022/10/10 06:33:01;;;;;;;3.23;1.80;;;10.50;98.00;;;;;;5052538;28;21028;-63
2022/10/10 06:35:29;;;;;;;3.33;2.23;;;10.40;98.00;;;;;;5052764;28;20842;-64
2022/10/10 06:37:56;;;;;;;4.37;2.17;;;10.40;98.00;;;;;;5051521;28;20495;-63
2022/10/10 06:40:23;;;;;;;3.50;2.00;;;10.40;98.00;;;;;;5052769;28;20465;-63
2022/10/10 06:42:50;;;;;;;3.70;2.17;;;10.40;98.00;;;;;;5052809;28;20460;-63
2022/10/10 06:45:17;;;;;;;2.93;2.30;;;10.60;98.00;;;;;;5052347;28;20850;-63
2022/10/10 06:47:46;;;;;;;4.97;2.50;;;10.70;98.00;;;;;;5051321;28;20469;-63
2022/10/10 06:50:13;;;;;;;3.43;1.90;;;10.80;98.00;;;;;;5051982;28;20453;-63
2022/10/10 06:52:41;;;;;;;4.57;2.50;;;10.80;98.00;;;;;;5052330;28;20465;-63
2022/10/10 06:55:09;;;;;;;3.77;2.33;;;11.00;98.00;;;;;;5052063;28;20513;-64
2022/10/10 06:57:36;;;;;;;2.80;1.93;;;11.20;98.00;;;;;;5052077;28;20462;-64
2022/10/10 07:00:04;;;;;;;4.27;2.20;;;11.40;98.00;;;;;;5050735;28;20463;-63
2022/10/10 07:02:31;;;;;;;3.53;2.13;;;11.50;98.00;;;;;;5052013;28;20460;-63
2022/10/10 07:05:01;;;;;;;3.90;2.33;;;11.60;98.00;;;;;;5051817;28;20887;-64
2022/10/10 07:07:28;;;;;;;4.43;2.73;;;11.70;98.00;;;;;;5052144;28;20882;-63
2022/10/10 07:09:55;;;;;;;4.40;3.10;;;11.90;98.00;;;;;;5051843;28;20540;-64
2022/10/10 07:12:22;;;;;;;6.73;2.97;;;12.00;98.00;;;;;;5051893;28;20969;-63
2022/10/10 07:14:52;;;;;;;5.47;2.40;;;11.90;98.00;;;;;;5051604;28;20461;-63
2022/10/10 07:17:19;;;;;;;3.97;2.20;;;12.00;98.00;;;;;;5051746;28;20464;-64
2022/10/10 07:19:46;;;;;;;7.33;3.10;;;11.90;98.00;;;;;;5050347;28;20461;-64
2022/10/10 07:22:15;;;;;;;3.80;2.33;;;11.80;98.00;;;;;;5051692;28;20458;-63
2022/10/10 07:24:42;;;;;;;4.80;2.70;;;11.80;98.00;;;;;;5050433;28;20860;-63
2022/10/10 07:27:09;;;;;;;3.70;2.40;;;11.80;98.00;;;;;;5051523;28;20502;-63
2022/10/10 07:29:36;;;;;;;2.93;2.30;;;11.90;98.00;;;;;;5051902;28;20740;-62
2022/10/10 07:32:03;;;;;;;2.83;2.30;;;12.10;98.00;;;;;;5051486;28;20451;-63
2022/10/10 07:34:30;;;;;;;3.67;2.50;;;12.20;98.00;;;;;;5051558;28;20460;-63
2022/10/10 07:36:58;;;;;;;7.67;2.70;;;12.30;98.00;;;;;;5049102;28;20466;-63
2022/10/10 07:39:26;;;;;;;5.37;2.33;;;12.20;98.00;;;;;;5049141;28;20464;-64
2022/10/10 07:41:57;;;;;;;5.70;2.30;;;12.20;98.00;;;;;;5048899;28;20456;-63
2022/10/10 07:44:25;;;;;;;3.37;2.07;;;12.30;98.00;;;;;;5031085;28;20459;-63
2022/10/10 07:46:52;;;;;;;4.13;2.33;;;12.30;98.00;;;;;;5048753;28;20492;-64
2022/10/10 07:49:19;;;;;;;4.13;2.67;;;12.40;98.00;;;;;;5046719;28;20482;-64
2022/10/10 07:51:47;;;;;;;5.37;2.83;;;12.50;98.00;;;;;;5048800;28;20996;-63
2022/10/10 07:54:14;;;;;;;3.40;2.47;;;12.60;98.00;;;;;;5048772;28;20477;-64
2022/10/10 07:56:44;;;;;;;3.60;2.80;;;12.70;98.00;;;;;;5048892;28;20952;-63
2022/10/10 07:59:11;;;;;;;6.73;2.90;;;12.60;98.00;;;;;;5048604;28;20698;-64
2022/10/10 08:01:41;;;;;;;5.10;2.63;;;12.70;98.00;;;;;;5048933;28;20550;-63
2022/10/10 08:04:08;;;;;;;5.83;2.93;;;12.80;98.00;;;;;;5048763;28;20521;-63
2022/10/10 08:06:36;;;;;;;4.00;2.63;;;12.80;98.00;;;;;;5048559;28;20493;-64
2022/10/10 08:09:04;;;;;;;4.37;2.57;;;12.90;98.00;;;;;;5048504;28;20461;-64
2022/10/10 08:11:35;;;;;;;7.13;2.67;;;13.10;98.00;;;;;;5047574;28;20836;-64
2022/10/10 08:14:04;;;;;;;3.17;2.60;;;13.10;98.00;;;;;;5047053;28;20962;-63
2022/10/10 08:16:31;;;;;;;4.00;2.37;;;13.20;98.00;;;;;;5047798;28;20462;-64
2022/10/10 08:18:58;;;;;;;3.93;2.70;;;13.20;98.00;;;;;;5050749;28;20656;-63
2022/10/10 08:21:25;;;;;;;3.97;2.63;;;13.40;98.00;;;;;;5048536;28;20463;-63
2022/10/10 08:23:52;;;;;;;4.80;2.50;;;13.40;98.00;;;;;;5048564;28;21017;-64
2022/10/10 08:26:19;;;;;;;5.67;2.67;;;13.50;98.00;;;;;;5048350;28;20486;-63
2022/10/10 08:28:47;;;;;;;5.57;3.30;;;13.70;98.00;;;;;;5048672;28;20486;-64
2022/10/10 08:31:17;;;;;;;4.40;2.67;;;13.80;98.00;;;;;;5049515;28;20619;-64
2022/10/10 08:33:45;;;;;;;4.63;2.40;;;13.80;98.00;;;;;;5050593;28;20471;-63
2022/10/10 08:36:15;;;;;;;4.57;2.57;;;13.90;98.00;;;;;;5048486;28;20463;-63
2022/10/10 08:38:42;;;;;;;3.73;2.67;;;13.90;98.00;;;;;;5048621;28;20459;-64
2022/10/10 08:41:16;;;;;;;4.07;2.80;;;13.90;98.00;;;;;;5048760;28;20464;-64
2022/10/10 08:43:50;;;;;;;3.53;2.60;;;14.00;98.00;;;;;;5048538;28;20532;-63
2022/10/10 08:46:27;;;;;;;6.00;2.40;;;14.10;98.00;;;;;;5048110;28;20495;-64
2022/10/10 08:48:59;;;;;;;4.30;2.40;;;14.20;98.00;;;;;;5048868;28;20754;-63
2022/10/10 08:51:31;;;;;;;3.53;2.40;;;14.30;98.00;;;;;;5046598;28;20946;-64
2022/10/10 08:54:01;;;;;;;4.57;2.57;;;14.30;98.00;;;;;;5048708;28;20456;-63
2022/10/10 08:56:31;;;;;;;5.70;2.93;;;14.40;98.00;;;;;;5040345;28;20966;-64
2022/10/10 08:59:03;;;;;;;5.80;2.73;;;14.60;98.00;;;;;;5047913;28;20464;-63
2022/10/10 09:01:35;;;;;;;4.00;2.30;;;14.70;98.00;;;;;;5047947;28;20465;-64
2022/10/10 09:04:04;;;;;;;5.00;3.00;;;14.80;98.00;;;;;;5048348;28;20461;-63
2022/10/10 09:06:45;;;;;;;4.57;2.53;;;14.80;98.00;;;;;;5047873;28;20502;-64
2022/10/10 09:09:22;;;;;;;3.93;2.70;;;14.90;98.00;;;;;;5047895;28;20468;-63
2022/10/10 09:12:06;;;;;;;3.40;2.57;;;15.00;98.00;;;;;;5050538;28;20457;-64
2022/10/10 09:14:39;;;;;;;5.47;2.60;;;15.10;98.00;;;;;;5050450;28;20985;-64
2022/10/10 09:17:19;;;;;;;4.13;2.70;;;15.20;98.00;;;;;;5051408;28;20809;-63
2022/10/10 09:20:00;;;;;;;4.73;2.97;;;15.10;98.00;;;;;;5051483;28;20454;-65
2022/10/10 09:22:32;;;;;;;22.47;3.00;;;15.10;98.00;;;;;;5043335;28;20464;-65
2022/10/10 09:25:05;;;;;;;5.20;2.87;;;15.10;98.00;;;;;;5051345;28;20460;-64
2022/10/10 09:27:38;;;;;;;6.50;3.23;;;15.20;98.00;;;;;;5050104;28;20576;-65
2022/10/10 09:30:10;;;;;;;7.00;3.17;;;15.30;98.00;;;;;;5051059;28;20526;-65
2022/10/10 09:32:43;;;;;;;6.00;3.53;;;15.50;98.00;;;;;;5051320;28;20978;-65
2022/10/10 09:35:16;;;;;;;4.90;2.77;;;15.70;98.00;;;;;;5049791;28;20996;-64
2022/10/10 09:37:44;;;;;;;5.30;3.07;;;15.90;98.00;;;;;;5051401;28;21013;-64
2022/10/10 09:40:20;;;;;;;7.13;2.70;;;16.00;98.00;;;;;;5051054;28;20824;-65
2022/10/10 09:42:48;;;;;;;3.97;2.63;;;16.00;98.00;;;;;;5051285;28;20978;-65
2022/10/10 09:45:20;;;;;;;5.20;3.13;;;16.10;98.00;;;;;;5050091;28;20467;-64
2022/10/10 09:47:51;;;;;;;6.33;3.00;;;16.30;98.00;;;;;;5051233;28;20846;-64
2022/10/10 09:50:18;;;;;;;5.73;2.93;;;16.50;98.00;;;;;;5048965;28;21018;-64
2022/10/10 09:52:46;;;;;;;4.77;2.73;;;16.70;98.00;;;;;;5050972;28;20465;-64
2022/10/10 09:55:26;;;;;;;8.57;2.93;;;16.60;98.00;;;;;;5050783;28;20836;-65
2022/10/10 09:57:55;;;;;;;4.87;2.90;;;16.60;98.00;;;;;;5049746;28;20449;-65
2022/10/10 10:00:32;;;;;;;6.50;3.13;;;16.70;98.00;;;;;;5050947;28;20472;-66
2022/10/10 10:03:12;;;;;;;3.87;3.00;;;16.70;98.00;;;;;;5051185;28;20464;-66
2022/10/10 10:05:42;;;;;;;5.93;2.93;;;16.70;98.00;;;;;;5042473;28;20471;-66
2022/10/10 10:08:28;;;;;;;6.70;3.03;;;16.80;98.00;;;;;;5050445;28;20488;-64
2022/10/10 10:10:58;;;;;;;19.00;2.57;;;16.70;98.00;;;;;;5049288;28;20454;-65
2022/10/10 10:13:30;;;;;;;3.57;2.40;;;16.60;98.00;;;;;;5049287;28;20461;-65
2022/10/10 10:16:04;;;;;;;6.00;2.57;;;16.70;98.00;;;;;;5050329;28;20462;-65
2022/10/10 10:18:40;;;;;;;3.93;2.47;;;17.00;98.00;;;;;;5050560;28;20460;-64
2022/10/10 10:21:14;;;;;;;4.53;2.70;;;17.10;98.00;;;;;;5050433;28;20461;-66
2022/10/10 10:23:43;;;;;;;9.87;3.07;;;17.10;98.00;;;;;;5050460;28;20807;-66
2022/10/10 10:26:19;;;;;;;4.13;2.53;;;17.10;98.00;;;;;;5050201;28;20576;-65
2022/10/10 10:28:48;;;;;;;5.03;2.90;;;17.20;98.00;;;;;;5050405;28;20469;-65
2022/10/10 10:31:24;;;;;;;4.30;2.57;;;17.30;98.00;;;;;;5048501;28;20560;-65
2022/10/10 10:34:05;;;;;;;5.00;3.00;;;17.60;98.00;;;;;;5050474;28;20492;-66
2022/10/10 10:36:45;;;;;;;3.60;2.20;;;17.80;98.00;;;;;;5041754;28;20476;-66
2022/10/10 10:39:28;;;;;;;3.70;2.27;;;17.90;98.00;;;;;;5043730;28;20461;-66
2022/10/10 10:42:00;;;;;;;3.60;2.30;;;18.00;98.00;;;;;;5050205;28;20481;-65
2022/10/10 10:44:39;;;;;;;7.97;2.67;;;18.20;98.00;;;;;;5050092;28;20553;-65
2022/10/10 10:47:26;;;;;;;2.37;2.13;;;18.20;98.00;;;;;;5048875;28;21076;-65
2022/10/10 10:50:13;;;;;;;3.27;2.10;;;18.30;98.00;;;;;;5046858;28;20540;-65
2022/10/10 10:52:55;;;;;;;3.10;2.30;;;18.40;98.00;;;;;;5049940;28;20454;-65
2022/10/10 10:55:29;;;;;;;4.50;2.60;;;18.60;98.00;;;;;;5049586;28;21223;-66
2022/10/10 10:58:25;;;;;;;4.97;2.83;;;18.80;98.00;;;;;;5049828;28;20465;-66
2022/10/10 11:00:56;;;;;;;3.20;2.43;;;18.90;98.00;;;;;;5049691;28;20449;-66
2022/10/10 11:03:36;;;;;;;6.33;2.87;;;18.80;98.00;;;;;;5049417;28;21030;-66
2022/10/10 11:06:18;;;;;;;5.17;2.37;;;18.70;98.00;;;;;;5049197;28;20844;-66
2022/10/10 11:08:57;;;;;;;5.43;3.03;;;18.70;98.00;;;;;;5042171;28;20480;-65
2022/10/10 11:11:39;;;;;;;4.27;2.63;;;18.70;98.00;;;;;;5049456;28;20543;-66
2022/10/10 11:14:20;;;;;;;4.00;2.30;;;18.90;98.00;;;;;;5047833;28;20465;-64
2022/10/10 11:16:51;;;;;;;3.87;2.50;;;19.00;98.00;;;;;;5049506;28;20952;-66
2022/10/10 11:19:24;;;;;;;4.47;2.50;;;19.70;98.00;;;;;;5049283;28;20466;-66
2022/10/10 11:22:00;;;;;;;6.43;2.43;;;20.60;98.00;;;;;;5049358;28;20453;-66
2022/10/10 11:24:35;;;;;;;3.80;2.57;;;21.10;98.00;;;;;;5049399;28;20464;-66
2022/10/10 11:27:07;;;;;;;4.30;2.60;;;21.50;98.00;;;;;;5048932;28;20481;-67
2022/10/10 11:29:47;;;;;;;3.00;2.17;;;21.90;98.00;;;;;;5049034;28;20481;-66
2022/10/10 11:32:20;;;;;;;3.20;2.10;;;22.50;98.00;;;;;;5041694;28;20507;-66
2022/10/10 11:34:56;;;;;;;5.20;2.30;;;23.00;98.00;;;;;;5047238;28;20492;-66
2022/10/10 11:37:28;;;;;;;3.00;2.50;;;23.20;98.00;;;;;;5048834;28;21225;-67
2022/10/10 11:39:56;;;;;;;2.77;1.90;;;23.40;98.00;;;;;;5049089;28;20878;-66
2022/10/10 11:42:31;;;;;;;3.60;2.53;;;23.40;98.00;;;;;;5049233;28;20948;-66
2022/10/10 11:45:04;;;;;;;7.43;2.90;;;23.70;98.00;;;;;;5052092;28;20940;-65
2022/10/10 11:47:39;;;;;;;3.43;2.43;;;24.00;98.00;;;;;;5049554;28;20543;-65
2022/10/10 11:50:15;;;;;;;5.67;2.80;;;24.20;98.00;;;;;;5047377;28;20468;-65
2022/10/10 11:52:52;;;;;;;4.30;2.57;;;24.40;98.00;;;;;;5049452;28;20466;-65
2022/10/10 11:55:26;;;;;;;3.70;2.43;;;24.60;98.00;;;;;;5049278;28;20544;-66
2022/10/10 11:57:58;;;;;;;3.17;2.27;;;24.70;98.00;;;;;;5049388;28;20983;-66
2022/10/10 12:00:28;;;;;;;2.97;2.13;;;24.90;98.00;;;;;;5049883;28;20462;-66
2022/10/10 12:02:57;;;;;;;6.87;3.07;;;25.00;98.00;;;;;;5049206;28;20464;-66
2022/10/10 12:05:26;;;;;;;4.40;2.60;;;25.30;98.00;;;;;;5049424;28;20802;-67
2022/10/10 12:08:13;;;;;;;3.27;2.03;;;25.50;96.40;;;;;;5048911;28;20493;-66
2022/10/10 12:10:46;;;;;;;4.43;2.30;;;25.70;95.10;;;;;;5043038;28;20458;-65
2022/10/10 12:13:28;;;;;;;8.63;2.40;;;25.70;93.40;;;;;;5047839;28;20450;-66
2022/10/10 12:15:57;;;;;;;7.60;2.90;;;25.80;93.80;;;;;;5045853;28;20464;-65
2022/10/10 12:18:29;;;;;;;2.47;2.00;;;26.00;92.50;;;;;;5049122;28;20454;-65
2022/10/10 12:21:08;;;;;;;4.20;2.43;;;26.30;92.20;;;;;;5048883;28;20469;-67
2022/10/10 12:23:37;;;;;;;3.13;2.17;;;26.30;91.20;;;;;;5048635;28;20457;-67
2022/10/10 12:26:05;;;;;;;5.13;2.47;;;26.60;91.70;;;;;;5048408;28;20859;-67
2022/10/10 12:28:37;;;;;;;6.40;2.50;;;26.80;91.00;;;;;;5048265;28;20485;-67
2022/10/10 12:31:35;;;;;;;2.70;2.30;;;27.10;90.60;;;;;;5048397;28;20457;-64
2022/10/10 12:34:18;;;;;;;3.60;2.30;;;27.30;89.40;;;;;;5034520;28;20453;-65
2022/10/10 12:37:11;;;;;;;6.00;2.70;;;27.40;88.50;;;;;;5048278;28;20501;-64
2022/10/10 12:40:19;;;;;;;3.40;2.27;;;27.50;88.30;;;;;;5048337;28;20457;-63
2022/10/10 12:43:23;;;;;;;2.97;2.10;;;27.70;88.40;;;;;;5048489;28;20485;-64
2022/10/10 12:46:08;;;;;;;3.60;2.13;;;27.90;88.80;;;;;;5049653;28;20465;-65
2022/10/10 12:48:36;;;;;;;5.77;2.77;;;28.10;87.60;;;;;;5052757;28;20524;-65
2022/10/10 12:51:04;;;;;;;3.77;2.40;;;28.10;87.50;;;;;;5050457;28;20480;-64
2022/10/10 12:53:34;;;;;;;3.20;2.50;;;28.10;86.90;;;;;;5052598;28;20532;-65
2022/10/10 12:56:07;;;;;;;3.77;2.33;;;28.10;86.90;;;;;;5056579;28;20906;-65
2022/10/10 12:58:37;;;;;;;5.70;2.70;;;28.30;87.30;;;;;;5051480;28;20824;-65
2022/10/10 13:01:11;;;;;;;8.40;2.63;;;28.50;87.10;;;;;;5043818;28;20461;-63
2022/10/10 13:03:43;;;;;;;3.53;2.50;;;28.60;85.70;;;;;;5044617;28;20458;-63
2022/10/10 13:06:31;;;;;;;3.77;2.37;;;28.80;86.20;;;;;;5051927;28;20464;-63
2022/10/10 13:09:00;;;;;;;6.80;2.60;;;29.10;85.00;;;;;;5051676;28;20461;-65